Ratnapura, Sri Lanka

10:20 AM IST on February 07, 2016 (GMT +0530)
Bandaranaike International | | Change Station
CLOSE
Current Station
Airport
Location: Katunayake,
Elevation: 26 ft
Nearby Weather Stations

Elev 26 ft 7.18 °N, 79.88 °E | Updated 40 minutes ago

Clear
Clear
86 °F
Feels Like 92 °F
N
5
Wind Variable Wind from ENE

Today
High -- | Low -- °F
--% Chance of Precip.
Yesterday
High -- | Low -- °F
Precip. -- in
Pressure 29.92 in
Visibility 5.6 miles
Clouds Clear
Heat Index 92 °F
Dew Point 72 °F
Humidity 62%
Rainfall 0.00 in
Snow Depth Not available.
6:26 AM 6:18 PM
Waning Crescent, 3% visible
METAR VCBI 070410Z 06004KT 350V140 9000 SKC 30/22 Q1013 NOSIG
Pressure 29.92 in
Visibility 5.6 miles
Clouds Clear
Heat Index 92 °F
Dew Point 72 °F
Humidity 62%
Rainfall 0.00 in
Snow Depth Not available.
6:26 AM 6:18 PM
Waning Crescent, 3% visible
METAR VCBI 070410Z 06004KT 350V140 9000 SKC 30/22 Q1013 NOSIG

10-Day Weather Forecast

No radar image for this location.
×

Almanac

Astronomy

Feb. 07, 2016 Rise Set
Actual Time
Civil Twilight
Nautical Twilight
Astronomical Twilight
Moon
Length of Visible Light
Length of Day
Tomorrow will be .
, % of the Moon is Illuminated

Today's Extremes

Country Highs Country Lows

Community

WunderPhotos

Upload Photos

1,891,157 photos uploaded!

WunderBlog® & News

Nearby

Air Quality

  Air Quality AQ Index Pollutant
Not available.

Snow Depth

Station Depth Elevation

Earthquake Activity

City Distance Mag. Time & Date
Minimum magnitude displayed is 2.5.

Coastal Water Temperatures

Place Temperature

Stations

Nearby Weather Stations

Station Location Temp. Windchill Dew Point Humidity Wind Precip. Elev Updated Type